createdAt,value
2023-04-26T00:04:41.598Z,95670.28
2023-04-26T00:10:03.448Z,95673.38
2023-04-26T00:15:25.424Z,95679.97
2023-04-26T00:20:47.418Z,95679.56
2023-04-26T00:26:09.409Z,95677.19
2023-04-26T00:31:31.476Z,95664.34
2023-04-26T00:36:53.409Z,95665.88
2023-04-26T00:42:15.425Z,95667.38
2023-04-26T00:47:37.460Z,95671.63
2023-04-26T00:53:00.417Z,95677.44
2023-04-26T00:58:22.398Z,95678.22
2023-04-26T01:03:44.582Z,95674.69
2023-04-26T01:09:08.442Z,95681.25
2023-04-26T01:14:31.413Z,95684.72
2023-04-26T01:19:54.411Z,95686.66
2023-04-26T01:25:18.433Z,95683.88
2023-04-26T01:30:40.410Z,95676.06
2023-04-26T01:36:02.391Z,95679.56
2023-04-26T01:41:24.389Z,95685.38
2023-04-26T01:46:48.449Z,95694.69
2023-04-26T01:52:10.394Z,95689.22
2023-04-26T01:57:34.399Z,95696.59
2023-04-26T02:02:56.458Z,95688.78
2023-04-26T02:08:18.374Z,95694.16
2023-04-26T02:13:40.398Z,95699.53
2023-04-26T02:19:02.407Z,95688.59
2023-04-26T02:24:24.383Z,95695.94
2023-04-26T02:29:46.372Z,95694.72
2023-04-26T02:35:08.395Z,95698.56
2023-04-26T02:40:30.375Z,95697.38
2023-04-26T02:45:52.385Z,95694.25
2023-04-26T02:51:14.380Z,95689.94
2023-04-26T02:56:36.389Z,95697.28
2023-04-26T03:01:58.402Z,95700.72
2023-04-26T03:07:20.364Z,95695.59
2023-04-26T03:12:42.366Z,95708.78
2023-04-26T03:18:04.427Z,95711.03
2023-04-26T03:23:26.378Z,95709.09
2023-04-26T03:28:48.355Z,95711.31
2023-04-26T03:34:10.347Z,95704.66
2023-04-26T03:39:33.339Z,95707.75
2023-04-26T03:44:55.370Z,95715.88
2023-04-26T03:50:17.372Z,95715.44
2023-04-26T03:55:39.362Z,95722.28
2023-04-26T04:01:05.329Z,95714.09
2023-04-26T04:06:27.375Z,95725.69
2023-04-26T04:11:49.340Z,95722.97
2023-04-26T04:17:11.340Z,95729.50
2023-04-26T04:22:33.336Z,95729.03
2023-04-26T04:27:56.332Z,95743.34
2023-04-26T04:33:18.315Z,95747.13
2023-04-26T04:38:40.330Z,95747.50
2023-04-26T04:44:04.338Z,95746.75
2023-04-26T04:49:26.334Z,95758.00
2023-04-26T04:54:48.315Z,95764.22
2023-04-26T05:00:16.334Z,95765.41
2023-04-26T05:05:43.315Z,95758.88
2023-04-26T05:11:05.318Z,95763.16
2023-04-26T05:16:27.331Z,95762.78
2023-04-26T05:21:51.312Z,95771.72
2023-04-26T05:27:13.327Z,95770.97
2023-04-26T05:32:41.339Z,95776.97
2023-04-26T05:38:21.326Z,95775.13
2023-04-26T05:43:43.324Z,95781.78
2023-04-26T05:49:05.310Z,95776.03
2023-04-26T05:54:28.313Z,95782.34
2023-04-26T05:59:51.342Z,95789.34
2023-04-26T06:05:15.470Z,95787.84
2023-04-26T06:10:37.329Z,95789.47
2023-04-26T06:15:59.318Z,95797.66
2023-04-26T06:21:21.343Z,95805.44
2023-04-26T06:26:43.310Z,95816.69
2023-04-26T06:32:05.316Z,95810.47
2023-04-26T06:37:27.310Z,95822.97
2023-04-26T06:42:49.275Z,95823.38
2023-04-26T06:48:26.283Z,95833.09
2023-04-26T06:53:48.305Z,95838.19
2023-04-26T06:59:14.294Z,95832.78
2023-04-26T07:04:43.453Z,95833.94
2023-04-26T07:10:05.291Z,95837.16
2023-04-26T07:15:27.306Z,95835.78
2023-04-26T07:20:49.321Z,95825.47
2023-04-26T07:26:11.298Z,95837.72
2023-04-26T07:31:33.284Z,95838.19
2023-04-26T07:36:55.304Z,95837.16
2023-04-26T07:42:17.282Z,95840.34
2023-04-26T07:47:39.321Z,95829.47
2023-04-26T07:53:01.281Z,95826.03
2023-04-26T07:58:23.285Z,95827.72
2023-04-26T08:03:45.646Z,95822.41
2023-04-26T08:09:07.290Z,95837.66
2023-04-26T08:14:29.354Z,95824.81
2023-04-26T08:19:51.262Z,95827.19
2023-04-26T08:25:13.273Z,95833.50
2023-04-26T08:30:35.308Z,95828.47
2023-04-26T08:35:57.268Z,95834.78
2023-04-26T08:41:21.287Z,95832.03
2023-04-26T08:47:13.239Z,95835.16
2023-04-26T08:52:35.272Z,95834.41
2023-04-26T08:57:57.253Z,95840.25
2023-04-26T09:03:19.377Z,95845.00
2023-04-26T09:08:45.257Z,95839.16
2023-04-26T09:14:07.250Z,95846.97
2023-04-26T09:19:43.253Z,95837.59
2023-04-26T09:25:05.281Z,95826.75
2023-04-26T09:30:28.258Z,95822.47
2023-04-26T09:35:54.250Z,95827.53
2023-04-26T09:41:16.313Z,95843.91
2023-04-26T09:46:38.343Z,95826.72
2023-04-26T09:52:07.240Z,95836.06
2023-04-26T09:57:31.229Z,95836.88
2023-04-26T10:03:00.380Z,95835.34
2023-04-26T10:08:23.269Z,95833.78
2023-04-26T10:13:45.242Z,95832.22
2023-04-26T10:19:07.249Z,95810.38
2023-04-26T10:24:29.223Z,95819.75
2023-04-26T10:30:03.217Z,95808.44
2023-04-26T10:35:27.240Z,95818.22
2023-04-26T10:40:49.234Z,95810.03
2023-04-26T10:46:11.273Z,95790.94
2023-04-26T10:51:33.210Z,95787.47
2023-04-26T10:56:55.222Z,95789.38
2023-04-26T11:02:17.228Z,95793.69
2023-04-26T11:07:52.207Z,95775.31
2023-04-26T11:13:14.229Z,95793.28
2023-04-26T11:18:37.225Z,95788.59
2023-04-26T11:24:00.204Z,95784.69
2023-04-26T11:29:22.229Z,95787.41
2023-04-26T11:34:45.220Z,95781.16
2023-04-26T11:40:07.241Z,95780.69
2023-04-26T11:45:29.391Z,95785.00
2023-04-26T11:50:52.255Z,95782.28
2023-04-26T11:56:28.214Z,95775.25
2023-04-26T12:01:50.368Z,95774.41
2023-04-26T12:07:13.250Z,95793.47
2023-04-26T12:12:37.242Z,95768.47
2023-04-26T12:18:04.289Z,95777.88
2023-04-26T12:23:28.245Z,95774.75
2023-04-26T12:28:50.227Z,95773.94
2023-04-26T12:34:12.195Z,95777.81
2023-04-26T12:39:34.209Z,95757.09
2023-04-26T12:44:56.216Z,95755.06
2023-04-26T12:50:19.238Z,95748.81
2023-04-26T12:55:41.265Z,95743.31
2023-04-26T13:01:03.526Z,95740.50
2023-04-26T13:06:25.497Z,95740.38
2023-04-26T13:11:47.216Z,95757.06
2023-04-26T13:17:09.392Z,95754.66
2023-04-26T13:22:31.210Z,95742.91
2023-04-26T13:27:53.223Z,95744.41
2023-04-26T13:33:15.246Z,95735.31
2023-04-26T13:38:44.228Z,95731.09
2023-04-26T13:44:07.237Z,95729.88
2023-04-26T13:49:29.260Z,95736.28
2023-04-26T13:54:51.211Z,95736.66
2023-04-26T14:00:13.204Z,95734.25
2023-04-26T14:05:42.217Z,95726.81
2023-04-26T14:11:04.195Z,95715.78
2023-04-26T14:16:26.261Z,95726.19
2023-04-26T14:21:49.212Z,95728.94
2023-04-26T14:27:11.203Z,95718.97
2023-04-26T14:32:33.217Z,95724.63
2023-04-26T14:37:55.198Z,95722.53
2023-04-26T14:43:17.172Z,95720.06
2023-04-26T14:48:39.165Z,95726.84
2023-04-26T14:54:01.225Z,95728.25
2023-04-26T14:59:23.193Z,95725.94
2023-04-26T15:04:52.332Z,95729.13
2023-04-26T15:10:15.163Z,95711.31
2023-04-26T15:15:37.438Z,95722.41
2023-04-26T15:20:59.462Z,95713.38
2023-04-26T15:26:21.450Z,95714.44
2023-04-26T15:31:43.257Z,95708.16
2023-04-26T15:37:05.168Z,95705.31
2023-04-26T15:42:27.160Z,95712.63
2023-04-26T15:47:49.193Z,95714.91
2023-04-26T15:53:11.226Z,95707.75
2023-04-26T15:58:33.295Z,95709.06
2023-04-26T16:04:02.241Z,95694.00
2023-04-26T16:09:26.248Z,95704.75
2023-04-26T16:14:48.175Z,95699.00
2023-04-26T16:20:12.225Z,95717.28
2023-04-26T16:25:34.194Z,95710.28
2023-04-26T16:30:56.191Z,95704.50
2023-04-26T16:36:18.186Z,95698.34
2023-04-26T16:41:40.172Z,95706.09
2023-04-26T16:47:02.172Z,95706.09
2023-04-26T16:52:24.189Z,95699.50
2023-04-26T16:57:46.296Z,95703.63
2023-04-26T17:03:15.380Z,95707.63
2023-04-26T17:08:37.135Z,95713.50
2023-04-26T17:13:59.132Z,95708.69
2023-04-26T17:19:21.140Z,95725.66
2023-04-26T17:24:43.136Z,95722.25
2023-04-26T17:30:05.233Z,95728.28
2023-04-26T17:35:27.159Z,95729.22
2023-04-26T17:40:49.163Z,95727.03
2023-04-26T17:46:11.231Z,95724.03
2023-04-26T17:51:33.238Z,95730.50
2023-04-26T17:56:55.147Z,95740.81
2023-04-26T18:02:17.258Z,95749.13
2023-04-26T18:07:39.132Z,95742.22
2023-04-26T18:13:01.118Z,95747.84
2023-04-26T18:18:24.574Z,95757.75
2023-04-26T18:23:47.128Z,95765.34
2023-04-26T18:29:09.130Z,95765.81
2023-04-26T18:34:31.127Z,95773.00
2023-04-26T18:39:53.101Z,95777.84
2023-04-26T18:45:15.116Z,95778.72
2023-04-26T18:50:37.128Z,95784.31
2023-04-26T18:56:02.133Z,95785.97
2023-04-26T19:01:24.197Z,95793.91
2023-04-26T19:06:54.126Z,95800.66
2023-04-26T19:12:16.153Z,95797.97
2023-04-26T19:17:40.143Z,95796.84
2023-04-26T19:23:02.161Z,95811.75
2023-04-26T19:28:24.124Z,95812.97
2023-04-26T19:33:47.120Z,95818.53
2023-04-26T19:39:09.114Z,95819.72
2023-04-26T19:44:31.095Z,95822.13
2023-04-26T19:49:54.108Z,95824.88
2023-04-26T19:55:17.153Z,95833.09
2023-04-26T20:00:42.142Z,95827.28
2023-04-26T20:06:11.177Z,95833.50
2023-04-26T20:11:33.118Z,95827.28
2023-04-26T20:16:55.139Z,95830.78
2023-04-26T20:22:17.117Z,95833.13
2023-04-26T20:27:39.089Z,95836.63
2023-04-26T20:33:01.176Z,95837.78
2023-04-26T20:38:23.093Z,95834.66
2023-04-26T20:43:45.078Z,95835.44
2023-04-26T20:49:07.177Z,95838.13
2023-04-26T20:54:29.112Z,95842.44
2023-04-26T20:59:51.089Z,95839.69
2023-04-26T21:05:20.100Z,95841.25
2023-04-26T21:10:57.107Z,95843.22
2023-04-26T21:16:19.175Z,95848.66
2023-04-26T21:21:41.076Z,95848.66
2023-04-26T21:27:03.094Z,95856.47
2023-04-26T21:32:25.108Z,95857.66
2023-04-26T21:37:47.091Z,95858.41
2023-04-26T21:43:09.106Z,95865.78
2023-04-26T21:48:31.057Z,95868.16
2023-04-26T21:53:53.073Z,95877.50
2023-04-26T21:59:16.081Z,95875.53
2023-04-26T22:04:38.079Z,95876.69
2023-04-26T22:10:00.123Z,95872.38
2023-04-26T22:15:22.117Z,95868.84
2023-04-26T22:20:44.087Z,95876.25
2023-04-26T22:26:07.064Z,95863.75
2023-04-26T22:31:29.107Z,95874.25
2023-04-26T22:36:51.068Z,95873.88
2023-04-26T22:42:13.079Z,95877.78
2023-04-26T22:47:35.082Z,95870.75
2023-04-26T22:52:57.069Z,95885.94
2023-04-26T22:58:19.083Z,95874.25
2023-04-26T23:03:44.085Z,95887.91
2023-04-26T23:09:06.059Z,95889.09
2023-04-26T23:14:28.059Z,95892.59
2023-04-26T23:19:50.038Z,95889.81
2023-04-26T23:25:12.070Z,95883.59
2023-04-26T23:30:34.058Z,95883.97
2023-04-26T23:35:56.092Z,95888.59
2023-04-26T23:41:18.078Z,95887.81
2023-04-26T23:46:40.105Z,95894.03
2023-04-26T23:52:02.034Z,95886.22
2023-04-26T23:57:24.053Z,95891.69
